sensor_id;sensor_type;location;lat;lon;timestamp;P1;durP1;ratioP1;P2;durP2;ratioP2
13801;SDS011;6972;51.518;6.918;2023-03-01T00:01:13;11.40;;;5.73;;
13801;SDS011;6972;51.518;6.918;2023-03-01T00:08:51;12.50;;;5.23;;
13801;SDS011;6972;51.518;6.918;2023-03-01T00:13:43;7.63;;;5.17;;
13801;SDS011;6972;51.518;6.918;2023-03-01T00:16:11;13.87;;;6.37;;
13801;SDS011;6972;51.518;6.918;2023-03-01T00:18:50;13.87;;;5.87;;
13801;SDS011;6972;51.518;6.918;2023-03-01T00:21:17;13.83;;;6.50;;
13801;SDS011;6972;51.518;6.918;2023-03-01T00:23:43;10.07;;;6.07;;
13801;SDS011;6972;51.518;6.918;2023-03-01T00:26:10;9.23;;;5.60;;
13801;SDS011;6972;51.518;6.918;2023-03-01T00:28:38;10.43;;;5.87;;
13801;SDS011;6972;51.518;6.918;2023-03-01T00:31:07;10.93;;;5.70;;
13801;SDS011;6972;51.518;6.918;2023-03-01T00:33:35;10.73;;;5.40;;
13801;SDS011;6972;51.518;6.918;2023-03-01T00:36:01;10.67;;;5.90;;
13801;SDS011;6972;51.518;6.918;2023-03-01T00:38:27;9.70;;;5.50;;
13801;SDS011;6972;51.518;6.918;2023-03-01T00:40:53;13.10;;;5.90;;
13801;SDS011;6972;51.518;6.918;2023-03-01T00:43:19;8.93;;;5.33;;
13801;SDS011;6972;51.518;6.918;2023-03-01T00:45:45;11.27;;;5.53;;
13801;SDS011;6972;51.518;6.918;2023-03-01T00:48:11;13.90;;;6.00;;
13801;SDS011;6972;51.518;6.918;2023-03-01T00:50:36;11.60;;;6.30;;
13801;SDS011;6972;51.518;6.918;2023-03-01T00:53:02;10.97;;;6.50;;
13801;SDS011;6972;51.518;6.918;2023-03-01T00:55:29;13.83;;;6.03;;
13801;SDS011;6972;51.518;6.918;2023-03-01T00:57:55;15.67;;;6.37;;
13801;SDS011;6972;51.518;6.918;2023-03-01T01:00:21;10.37;;;5.47;;
13801;SDS011;6972;51.518;6.918;2023-03-01T01:02:47;9.97;;;5.73;;
13801;SDS011;6972;51.518;6.918;2023-03-01T01:05:13;10.23;;;6.07;;
13801;SDS011;6972;51.518;6.918;2023-03-01T01:07:39;9.90;;;6.07;;
13801;SDS011;6972;51.518;6.918;2023-03-01T01:10:05;10.23;;;5.30;;
13801;SDS011;6972;51.518;6.918;2023-03-01T01:12:31;12.33;;;6.10;;
13801;SDS011;6972;51.518;6.918;2023-03-01T01:14:57;10.87;;;5.90;;
13801;SDS011;6972;51.518;6.918;2023-03-01T01:17:23;14.37;;;6.57;;
13801;SDS011;6972;51.518;6.918;2023-03-01T01:19:49;11.77;;;5.73;;
13801;SDS011;6972;51.518;6.918;2023-03-01T01:22:15;9.27;;;5.40;;
13801;SDS011;6972;51.518;6.918;2023-03-01T01:24:41;13.30;;;6.03;;
13801;SDS011;6972;51.518;6.918;2023-03-01T01:27:08;9.67;;;5.57;;
13801;SDS011;6972;51.518;6.918;2023-03-01T01:29:33;9.93;;;5.67;;
13801;SDS011;6972;51.518;6.918;2023-03-01T01:31:59;9.33;;;5.90;;
13801;SDS011;6972;51.518;6.918;2023-03-01T01:34:25;7.97;;;5.73;;
13801;SDS011;6972;51.518;6.918;2023-03-01T01:36:52;9.93;;;6.10;;
13801;SDS011;6972;51.518;6.918;2023-03-01T01:39:19;11.50;;;6.13;;
13801;SDS011;6972;51.518;6.918;2023-03-01T01:41:45;10.47;;;5.90;;
13801;SDS011;6972;51.518;6.918;2023-03-01T01:44:21;9.10;;;5.87;;
13801;SDS011;6972;51.518;6.918;2023-03-01T01:52:18;13.40;;;6.00;;
13801;SDS011;6972;51.518;6.918;2023-03-01T01:57:49;8.47;;;6.17;;
13801;SDS011;6972;51.518;6.918;2023-03-01T02:00:19;9.70;;;5.83;;
13801;SDS011;6972;51.518;6.918;2023-03-01T02:02:48;11.13;;;6.20;;
13801;SDS011;6972;51.518;6.918;2023-03-01T02:05:29;11.27;;;6.00;;
13801;SDS011;6972;51.518;6.918;2023-03-01T02:08:05;10.57;;;6.00;;
13801;SDS011;6972;51.518;6.918;2023-03-01T02:10:32;10.27;;;5.40;;
13801;SDS011;6972;51.518;6.918;2023-03-01T02:13:00;8.40;;;6.07;;
13801;SDS011;6972;51.518;6.918;2023-03-01T02:15:26;10.40;;;6.00;;
13801;SDS011;6972;51.518;6.918;2023-03-01T02:17:53;8.97;;;6.13;;
13801;SDS011;6972;51.518;6.918;2023-03-01T02:22:45;8.50;;;6.00;;
13801;SDS011;6972;51.518;6.918;2023-03-01T02:25:19;10.33;;;5.97;;
13801;SDS011;6972;51.518;6.918;2023-03-01T02:30:26;10.90;;;6.47;;
13801;SDS011;6972;51.518;6.918;2023-03-01T02:32:53;9.23;;;6.57;;
13801;SDS011;6972;51.518;6.918;2023-03-01T02:35:27;8.30;;;5.80;;
13801;SDS011;6972;51.518;6.918;2023-03-01T02:37:57;9.53;;;5.60;;
13801;SDS011;6972;51.518;6.918;2023-03-01T02:40:25;10.33;;;6.80;;
13801;SDS011;6972;51.518;6.918;2023-03-01T02:42:54;8.00;;;5.90;;
13801;SDS011;6972;51.518;6.918;2023-03-01T02:45:22;10.80;;;6.23;;
13801;SDS011;6972;51.518;6.918;2023-03-01T02:47:49;9.77;;;6.60;;
13801;SDS011;6972;51.518;6.918;2023-03-01T02:50:19;11.20;;;6.30;;
13801;SDS011;6972;51.518;6.918;2023-03-01T02:53:11;11.23;;;6.90;;
13801;SDS011;6972;51.518;6.918;2023-03-01T02:55:44;12.47;;;6.47;;
13801;SDS011;6972;51.518;6.918;2023-03-01T02:58:10;10.90;;;6.90;;
13801;SDS011;6972;51.518;6.918;2023-03-01T03:00:37;11.00;;;6.93;;
13801;SDS011;6972;51.518;6.918;2023-03-01T03:03:09;11.17;;;6.63;;
13801;SDS011;6972;51.518;6.918;2023-03-01T03:05:35;12.67;;;6.80;;
13801;SDS011;6972;51.518;6.918;2023-03-01T03:08:01;11.53;;;6.37;;
13801;SDS011;6972;51.518;6.918;2023-03-01T03:10:32;9.83;;;6.87;;
13801;SDS011;6972;51.518;6.918;2023-03-01T03:13:01;9.33;;;6.33;;
13801;SDS011;6972;51.518;6.918;2023-03-01T03:15:32;10.30;;;6.60;;
13801;SDS011;6972;51.518;6.918;2023-03-01T03:18:01;15.57;;;6.80;;
13801;SDS011;6972;51.518;6.918;2023-03-01T03:20:28;11.13;;;6.50;;
13801;SDS011;6972;51.518;6.918;2023-03-01T03:22:55;10.80;;;6.63;;
13801;SDS011;6972;51.518;6.918;2023-03-01T03:25:21;12.20;;;7.10;;
13801;SDS011;6972;51.518;6.918;2023-03-01T03:27:48;11.47;;;6.70;;
13801;SDS011;6972;51.518;6.918;2023-03-01T03:30:22;8.77;;;6.37;;
13801;SDS011;6972;51.518;6.918;2023-03-01T03:32:52;13.00;;;6.63;;
13801;SDS011;6972;51.518;6.918;2023-03-01T03:35:28;11.67;;;6.63;;
13801;SDS011;6972;51.518;6.918;2023-03-01T03:37:56;12.90;;;6.63;;
13801;SDS011;6972;51.518;6.918;2023-03-01T03:40:37;9.73;;;6.23;;
13801;SDS011;6972;51.518;6.918;2023-03-01T03:43:06;12.27;;;6.80;;
13801;SDS011;6972;51.518;6.918;2023-03-01T03:48:09;11.37;;;6.70;;
13801;SDS011;6972;51.518;6.918;2023-03-01T03:50:36;9.97;;;6.60;;
13801;SDS011;6972;51.518;6.918;2023-03-01T03:53:03;10.80;;;6.47;;
13801;SDS011;6972;51.518;6.918;2023-03-01T03:55:31;11.10;;;7.03;;
13801;SDS011;6972;51.518;6.918;2023-03-01T03:57:59;10.90;;;6.90;;
13801;SDS011;6972;51.518;6.918;2023-03-01T04:00:31;11.23;;;6.70;;
13801;SDS011;6972;51.518;6.918;2023-03-01T04:02:58;9.20;;;6.47;;
13801;SDS011;6972;51.518;6.918;2023-03-01T04:05:25;12.07;;;6.83;;
13801;SDS011;6972;51.518;6.918;2023-03-01T04:07:52;9.70;;;6.73;;
13801;SDS011;6972;51.518;6.918;2023-03-01T04:10:26;10.67;;;7.27;;
13801;SDS011;6972;51.518;6.918;2023-03-01T04:12:53;15.10;;;6.93;;
13801;SDS011;6972;51.518;6.918;2023-03-01T04:15:21;9.30;;;6.83;;
13801;SDS011;6972;51.518;6.918;2023-03-01T04:17:49;20.90;;;7.50;;
13801;SDS011;6972;51.518;6.918;2023-03-01T04:20:18;10.40;;;6.73;;
13801;SDS011;6972;51.518;6.918;2023-03-01T04:25:46;11.90;;;7.00;;
13801;SDS011;6972;51.518;6.918;2023-03-01T04:28:20;11.30;;;6.80;;
13801;SDS011;6972;51.518;6.918;2023-03-01T04:30:46;11.43;;;6.77;;
13801;SDS011;6972;51.518;6.918;2023-03-01T04:33:11;12.73;;;7.53;;
13801;SDS011;6972;51.518;6.918;2023-03-01T04:35:38;10.00;;;6.70;;
13801;SDS011;6972;51.518;6.918;2023-03-01T04:38:04;9.97;;;6.50;;
13801;SDS011;6972;51.518;6.918;2023-03-01T04:40:30;13.20;;;6.93;;
13801;SDS011;6972;51.518;6.918;2023-03-01T04:42:56;12.70;;;7.07;;
13801;SDS011;6972;51.518;6.918;2023-03-01T04:45:22;15.03;;;7.20;;
13801;SDS011;6972;51.518;6.918;2023-03-01T04:47:48;13.60;;;7.03;;
13801;SDS011;6972;51.518;6.918;2023-03-01T04:50:17;12.37;;;7.07;;
13801;SDS011;6972;51.518;6.918;2023-03-01T04:52:48;13.13;;;7.97;;
13801;SDS011;6972;51.518;6.918;2023-03-01T04:55:14;17.37;;;7.50;;
13801;SDS011;6972;51.518;6.918;2023-03-01T04:57:41;10.70;;;6.87;;
13801;SDS011;6972;51.518;6.918;2023-03-01T05:00:10;12.53;;;7.03;;
13801;SDS011;6972;51.518;6.918;2023-03-01T05:02:48;14.80;;;7.50;;
13801;SDS011;6972;51.518;6.918;2023-03-01T05:05:18;11.10;;;7.20;;
13801;SDS011;6972;51.518;6.918;2023-03-01T05:07:45;14.63;;;7.73;;
13801;SDS011;6972;51.518;6.918;2023-03-01T05:10:11;14.50;;;7.43;;
13801;SDS011;6972;51.518;6.918;2023-03-01T05:12:37;10.60;;;6.63;;
13801;SDS011;6972;51.518;6.918;2023-03-01T05:15:03;9.70;;;7.03;;
13801;SDS011;6972;51.518;6.918;2023-03-01T05:17:32;12.67;;;6.97;;
13801;SDS011;6972;51.518;6.918;2023-03-01T05:19:59;10.27;;;6.93;;
13801;SDS011;6972;51.518;6.918;2023-03-01T05:22:25;11.63;;;7.50;;
13801;SDS011;6972;51.518;6.918;2023-03-01T05:24:51;10.90;;;7.47;;
13801;SDS011;6972;51.518;6.918;2023-03-01T05:27:19;13.00;;;7.23;;
13801;SDS011;6972;51.518;6.918;2023-03-01T05:29:47;10.83;;;7.23;;
13801;SDS011;6972;51.518;6.918;2023-03-01T05:32:13;10.17;;;6.67;;
13801;SDS011;6972;51.518;6.918;2023-03-01T05:34:40;11.13;;;6.97;;
13801;SDS011;6972;51.518;6.918;2023-03-01T05:37:06;10.20;;;7.10;;
13801;SDS011;6972;51.518;6.918;2023-03-01T05:39:32;13.43;;;6.63;;
13801;SDS011;6972;51.518;6.918;2023-03-01T05:41:59;10.53;;;7.57;;
13801;SDS011;6972;51.518;6.918;2023-03-01T05:44:26;12.93;;;7.53;;
13801;SDS011;6972;51.518;6.918;2023-03-01T05:46:53;13.23;;;7.77;;
13801;SDS011;6972;51.518;6.918;2023-03-01T05:49:20;11.13;;;6.90;;
13801;SDS011;6972;51.518;6.918;2023-03-01T05:51:49;12.60;;;7.37;;
13801;SDS011;6972;51.518;6.918;2023-03-01T05:54:17;15.47;;;7.50;;
13801;SDS011;6972;51.518;6.918;2023-03-01T05:56:43;15.10;;;8.60;;
13801;SDS011;6972;51.518;6.918;2023-03-01T05:59:09;12.23;;;7.20;;
13801;SDS011;6972;51.518;6.918;2023-03-01T06:01:36;11.33;;;7.03;;
13801;SDS011;6972;51.518;6.918;2023-03-01T06:04:02;12.97;;;7.63;;
13801;SDS011;6972;51.518;6.918;2023-03-01T06:06:29;11.77;;;7.30;;
13801;SDS011;6972;51.518;6.918;2023-03-01T06:08:55;13.27;;;7.33;;
13801;SDS011;6972;51.518;6.918;2023-03-01T06:11:21;9.83;;;7.07;;
13801;SDS011;6972;51.518;6.918;2023-03-01T06:13:47;15.20;;;7.37;;
13801;SDS011;6972;51.518;6.918;2023-03-01T06:16:13;11.17;;;7.00;;
13801;SDS011;6972;51.518;6.918;2023-03-01T06:18:39;11.67;;;7.93;;
13801;SDS011;6972;51.518;6.918;2023-03-01T06:21:06;10.97;;;7.30;;
13801;SDS011;6972;51.518;6.918;2023-03-01T06:23:32;10.93;;;7.50;;
13801;SDS011;6972;51.518;6.918;2023-03-01T06:25:58;12.70;;;7.40;;
13801;SDS011;6972;51.518;6.918;2023-03-01T06:28:25;13.10;;;7.40;;
13801;SDS011;6972;51.518;6.918;2023-03-01T06:30:50;10.90;;;7.07;;
13801;SDS011;6972;51.518;6.918;2023-03-01T06:33:17;14.50;;;7.80;;
13801;SDS011;6972;51.518;6.918;2023-03-01T06:35:45;11.40;;;7.30;;
13801;SDS011;6972;51.518;6.918;2023-03-01T06:38:11;12.90;;;7.37;;
13801;SDS011;6972;51.518;6.918;2023-03-01T06:40:40;15.47;;;7.80;;
13801;SDS011;6972;51.518;6.918;2023-03-01T06:43:06;13.67;;;7.87;;
13801;SDS011;6972;51.518;6.918;2023-03-01T06:45:32;10.90;;;6.93;;
13801;SDS011;6972;51.518;6.918;2023-03-01T06:48:02;17.43;;;7.77;;
13801;SDS011;6972;51.518;6.918;2023-03-01T06:50:29;11.60;;;7.33;;
13801;SDS011;6972;51.518;6.918;2023-03-01T06:52:56;13.83;;;8.03;;
13801;SDS011;6972;51.518;6.918;2023-03-01T06:55:22;13.73;;;7.93;;
13801;SDS011;6972;51.518;6.918;2023-03-01T06:57:47;19.07;;;9.13;;
13801;SDS011;6972;51.518;6.918;2023-03-01T07:00:14;14.47;;;8.57;;
13801;SDS011;6972;51.518;6.918;2023-03-01T07:03:14;13.73;;;8.67;;
13801;SDS011;6972;51.518;6.918;2023-03-01T07:05:33;18.73;;;10.17;;
13801;SDS011;6972;51.518;6.918;2023-03-01T07:07:59;15.97;;;8.83;;
13801;SDS011;6972;51.518;6.918;2023-03-01T07:10:25;17.17;;;9.13;;
13801;SDS011;6972;51.518;6.918;2023-03-01T07:13:02;22.73;;;8.97;;
13801;SDS011;6972;51.518;6.918;2023-03-01T07:15:27;16.83;;;8.97;;
13801;SDS011;6972;51.518;6.918;2023-03-01T07:17:53;15.40;;;9.10;;
13801;SDS011;6972;51.518;6.918;2023-03-01T07:20:19;14.23;;;8.40;;
13801;SDS011;6972;51.518;6.918;2023-03-01T07:22:50;14.13;;;8.30;;
13801;SDS011;6972;51.518;6.918;2023-03-01T07:25:34;15.33;;;8.07;;
13801;SDS011;6972;51.518;6.918;2023-03-01T07:28:00;17.07;;;9.20;;
13801;SDS011;6972;51.518;6.918;2023-03-01T07:33:40;17.00;;;8.60;;
13801;SDS011;6972;51.518;6.918;2023-03-01T07:36:07;17.80;;;8.63;;
13801;SDS011;6972;51.518;6.918;2023-03-01T07:38:32;24.43;;;8.83;;
13801;SDS011;6972;51.518;6.918;2023-03-01T07:41:12;16.40;;;8.53;;
13801;SDS011;6972;51.518;6.918;2023-03-01T07:43:45;15.73;;;8.50;;
13801;SDS011;6972;51.518;6.918;2023-03-01T07:46:11;15.73;;;8.63;;
13801;SDS011;6972;51.518;6.918;2023-03-01T07:48:39;23.33;;;8.93;;
13801;SDS011;6972;51.518;6.918;2023-03-01T07:51:19;13.80;;;8.50;;
13801;SDS011;6972;51.518;6.918;2023-03-01T07:53:56;14.60;;;8.03;;
13801;SDS011;6972;51.518;6.918;2023-03-01T07:59:44;14.80;;;8.33;;
13801;SDS011;6972;51.518;6.918;2023-03-01T08:02:11;15.57;;;8.90;;
13801;SDS011;6972;51.518;6.918;2023-03-01T08:04:50;14.23;;;8.37;;
13801;SDS011;6972;51.518;6.918;2023-03-01T08:07:24;11.97;;;8.13;;
13801;SDS011;6972;51.518;6.918;2023-03-01T08:13:12;16.30;;;7.77;;
13801;SDS011;6972;51.518;6.918;2023-03-01T08:15:38;20.50;;;8.77;;
13801;SDS011;6972;51.518;6.918;2023-03-01T08:41:17;16.70;;;8.23;;
13801;SDS011;6972;51.518;6.918;2023-03-01T08:46:33;12.27;;;7.83;;
13801;SDS011;6972;51.518;6.918;2023-03-01T08:51:40;12.67;;;8.03;;
13801;SDS011;6972;51.518;6.918;2023-03-01T09:00:40;14.93;;;8.03;;
13801;SDS011;6972;51.518;6.918;2023-03-01T09:09:05;12.30;;;7.50;;
13801;SDS011;6972;51.518;6.918;2023-03-01T09:11:37;13.63;;;7.00;;
13801;SDS011;6972;51.518;6.918;2023-03-01T09:14:05;12.83;;;7.50;;
13801;SDS011;6972;51.518;6.918;2023-03-01T09:16:32;15.20;;;7.30;;
13801;SDS011;6972;51.518;6.918;2023-03-01T09:27:03;10.27;;;7.23;;
13801;SDS011;6972;51.518;6.918;2023-03-01T09:53:44;9.40;;;6.63;;
13801;SDS011;6972;51.518;6.918;2023-03-01T10:12:13;10.33;;;6.60;;
13801;SDS011;6972;51.518;6.918;2023-03-01T10:35:19;15.57;;;6.53;;
13801;SDS011;6972;51.518;6.918;2023-03-01T10:40:56;15.53;;;6.70;;
13801;SDS011;6972;51.518;6.918;2023-03-01T10:52:17;8.63;;;5.87;;
13801;SDS011;6972;51.518;6.918;2023-03-01T10:58:20;9.33;;;6.00;;
13801;SDS011;6972;51.518;6.918;2023-03-01T11:01:01;9.47;;;5.77;;
13801;SDS011;6972;51.518;6.918;2023-03-01T11:03:38;11.10;;;5.60;;
13801;SDS011;6972;51.518;6.918;2023-03-01T11:06:24;9.93;;;5.20;;
13801;SDS011;6972;51.518;6.918;2023-03-01T11:09:13;9.27;;;5.33;;
13801;SDS011;6972;51.518;6.918;2023-03-01T11:12:05;12.33;;;5.43;;
13801;SDS011;6972;51.518;6.918;2023-03-01T11:14:45;8.13;;;4.90;;
13801;SDS011;6972;51.518;6.918;2023-03-01T11:17:30;8.17;;;4.87;;
13801;SDS011;6972;51.518;6.918;2023-03-01T11:20:23;8.67;;;5.23;;
13801;SDS011;6972;51.518;6.918;2023-03-01T11:23:25;9.13;;;5.50;;
13801;SDS011;6972;51.518;6.918;2023-03-01T11:26:02;11.53;;;5.90;;
13801;SDS011;6972;51.518;6.918;2023-03-01T11:28:45;10.43;;;5.80;;
13801;SDS011;6972;51.518;6.918;2023-03-01T11:31:36;8.20;;;5.60;;
13801;SDS011;6972;51.518;6.918;2023-03-01T11:37:16;10.50;;;5.67;;
13801;SDS011;6972;51.518;6.918;2023-03-01T11:40:11;11.30;;;5.60;;
13801;SDS011;6972;51.518;6.918;2023-03-01T11:50:53;8.63;;;5.50;;
13801;SDS011;6972;51.518;6.918;2023-03-01T11:53:56;8.00;;;5.00;;
13801;SDS011;6972;51.518;6.918;2023-03-01T12:57:21;10.53;;;5.53;;
13801;SDS011;6972;51.518;6.918;2023-03-01T14:01:07;9.13;;;5.77;;
13801;SDS011;6972;51.518;6.918;2023-03-01T14:47:24;11.93;;;6.27;;
13801;SDS011;6972;51.518;6.918;2023-03-01T15:15:44;9.30;;;5.80;;
13801;SDS011;6972;51.518;6.918;2023-03-01T15:24:35;7.13;;;4.87;;
13801;SDS011;6972;51.518;6.918;2023-03-01T16:56:49;11.27;;;6.07;;
13801;SDS011;6972;51.518;6.918;2023-03-01T17:16:05;11.80;;;5.63;;
13801;SDS011;6972;51.518;6.918;2023-03-01T17:21:07;11.80;;;5.80;;
13801;SDS011;6972;51.518;6.918;2023-03-01T17:23:34;9.83;;;5.23;;
13801;SDS011;6972;51.518;6.918;2023-03-01T17:26:00;11.57;;;5.33;;
13801;SDS011;6972;51.518;6.918;2023-03-01T17:28:28;10.90;;;6.03;;
13801;SDS011;6972;51.518;6.918;2023-03-01T17:30:55;12.93;;;6.27;;
13801;SDS011;6972;51.518;6.918;2023-03-01T17:33:21;14.37;;;6.40;;
13801;SDS011;6972;51.518;6.918;2023-03-01T17:43:28;10.93;;;6.33;;
13801;SDS011;6972;51.518;6.918;2023-03-01T17:48:38;11.50;;;6.10;;
13801;SDS011;6972;51.518;6.918;2023-03-01T17:51:05;10.03;;;6.00;;
13801;SDS011;6972;51.518;6.918;2023-03-01T17:53:32;10.00;;;6.07;;
13801;SDS011;6972;51.518;6.918;2023-03-01T17:55:59;9.97;;;5.93;;
13801;SDS011;6972;51.518;6.918;2023-03-01T18:03:38;10.40;;;5.93;;
13801;SDS011;6972;51.518;6.918;2023-03-01T18:11:12;10.37;;;6.23;;
13801;SDS011;6972;51.518;6.918;2023-03-01T18:13:38;9.40;;;6.17;;
13801;SDS011;6972;51.518;6.918;2023-03-01T18:16:06;13.70;;;6.37;;
13801;SDS011;6972;51.518;6.918;2023-03-01T18:18:33;12.40;;;6.27;;
13801;SDS011;6972;51.518;6.918;2023-03-01T18:20:59;10.43;;;6.40;;
13801;SDS011;6972;51.518;6.918;2023-03-01T18:23:26;12.03;;;6.37;;
13801;SDS011;6972;51.518;6.918;2023-03-01T18:28:28;11.47;;;6.10;;
13801;SDS011;6972;51.518;6.918;2023-03-01T18:30:56;13.60;;;6.47;;
13801;SDS011;6972;51.518;6.918;2023-03-01T18:33:29;13.00;;;6.63;;
13801;SDS011;6972;51.518;6.918;2023-03-01T18:35:58;11.67;;;7.10;;
13801;SDS011;6972;51.518;6.918;2023-03-01T18:38:23;11.23;;;6.80;;
13801;SDS011;6972;51.518;6.918;2023-03-01T18:40:54;14.00;;;6.87;;
13801;SDS011;6972;51.518;6.918;2023-03-01T18:43:20;11.97;;;6.27;;
13801;SDS011;6972;51.518;6.918;2023-03-01T18:45:54;16.10;;;6.70;;
13801;SDS011;6972;51.518;6.918;2023-03-01T18:48:23;8.63;;;5.90;;
13801;SDS011;6972;51.518;6.918;2023-03-01T18:50:49;10.10;;;6.43;;
13801;SDS011;6972;51.518;6.918;2023-03-01T19:11:20;12.03;;;6.20;;
13801;SDS011;6972;51.518;6.918;2023-03-01T19:13:49;12.07;;;6.30;;
13801;SDS011;6972;51.518;6.918;2023-03-01T19:16:17;15.33;;;6.70;;
13801;SDS011;6972;51.518;6.918;2023-03-01T19:18:44;12.80;;;7.10;;
13801;SDS011;6972;51.518;6.918;2023-03-01T19:21:16;14.80;;;7.57;;
13801;SDS011;6972;51.518;6.918;2023-03-01T19:26:21;12.70;;;6.90;;
13801;SDS011;6972;51.518;6.918;2023-03-01T19:36:34;14.37;;;6.60;;
13801;SDS011;6972;51.518;6.918;2023-03-01T19:41:36;11.70;;;6.27;;
13801;SDS011;6972;51.518;6.918;2023-03-01T19:44:09;11.70;;;6.70;;
13801;SDS011;6972;51.518;6.918;2023-03-01T19:46:39;10.70;;;5.43;;
13801;SDS011;6972;51.518;6.918;2023-03-01T19:49:05;11.23;;;5.77;;
13801;SDS011;6972;51.518;6.918;2023-03-01T19:51:31;10.63;;;5.90;;
13801;SDS011;6972;51.518;6.918;2023-03-01T19:54:02;11.30;;;5.93;;
13801;SDS011;6972;51.518;6.918;2023-03-01T19:59:05;10.87;;;6.40;;
13801;SDS011;6972;51.518;6.918;2023-03-01T20:01:32;16.27;;;6.87;;
13801;SDS011;6972;51.518;6.918;2023-03-01T20:14:20;10.33;;;6.07;;
13801;SDS011;6972;51.518;6.918;2023-03-01T20:25:00;14.40;;;6.10;;
13801;SDS011;6972;51.518;6.918;2023-03-01T20:30:03;11.80;;;6.30;;
13801;SDS011;6972;51.518;6.918;2023-03-01T20:32:30;8.63;;;5.70;;
13801;SDS011;6972;51.518;6.918;2023-03-01T20:34:56;10.20;;;6.20;;
13801;SDS011;6972;51.518;6.918;2023-03-01T20:37:22;10.67;;;5.33;;
13801;SDS011;6972;51.518;6.918;2023-03-01T20:39:49;10.57;;;6.27;;
13801;SDS011;6972;51.518;6.918;2023-03-01T20:42:20;12.33;;;5.90;;
13801;SDS011;6972;51.518;6.918;2023-03-01T20:44:46;11.10;;;5.37;;
13801;SDS011;6972;51.518;6.918;2023-03-01T20:47:13;11.87;;;5.67;;
13801;SDS011;6972;51.518;6.918;2023-03-01T20:49:39;12.47;;;6.03;;
13801;SDS011;6972;51.518;6.918;2023-03-01T20:52:05;10.97;;;5.77;;
13801;SDS011;6972;51.518;6.918;2023-03-01T20:54:31;10.17;;;5.17;;
13801;SDS011;6972;51.518;6.918;2023-03-01T20:56:57;10.37;;;5.67;;
13801;SDS011;6972;51.518;6.918;2023-03-01T20:59:22;10.90;;;5.50;;
13801;SDS011;6972;51.518;6.918;2023-03-01T21:01:48;9.57;;;5.83;;
13801;SDS011;6972;51.518;6.918;2023-03-01T21:04:14;10.93;;;5.73;;
13801;SDS011;6972;51.518;6.918;2023-03-01T21:06:41;12.13;;;5.87;;
13801;SDS011;6972;51.518;6.918;2023-03-01T21:09:09;10.43;;;5.77;;
13801;SDS011;6972;51.518;6.918;2023-03-01T21:26:26;10.53;;;5.53;;
13801;SDS011;6972;51.518;6.918;2023-03-01T21:28:56;11.10;;;5.40;;
13801;SDS011;6972;51.518;6.918;2023-03-01T21:31:24;8.67;;;5.43;;
13801;SDS011;6972;51.518;6.918;2023-03-01T21:33:56;9.87;;;5.33;;
13801;SDS011;6972;51.518;6.918;2023-03-01T21:36:24;18.20;;;5.77;;
13801;SDS011;6972;51.518;6.918;2023-03-01T21:38:51;10.67;;;5.30;;
13801;SDS011;6972;51.518;6.918;2023-03-01T21:51:31;8.40;;;5.23;;
13801;SDS011;6972;51.518;6.918;2023-03-01T22:04:20;9.37;;;5.30;;
13801;SDS011;6972;51.518;6.918;2023-03-01T22:06:46;9.40;;;5.33;;
13801;SDS011;6972;51.518;6.918;2023-03-01T22:09:13;8.60;;;5.17;;
13801;SDS011;6972;51.518;6.918;2023-03-01T22:11:44;11.37;;;5.47;;
13801;SDS011;6972;51.518;6.918;2023-03-01T22:16:48;7.70;;;5.27;;
13801;SDS011;6972;51.518;6.918;2023-03-01T22:21:49;11.27;;;5.50;;
13801;SDS011;6972;51.518;6.918;2023-03-01T22:27:00;9.93;;;5.33;;
13801;SDS011;6972;51.518;6.918;2023-03-01T22:31:52;11.30;;;5.33;;
13801;SDS011;6972;51.518;6.918;2023-03-01T22:34:18;7.93;;;5.03;;
13801;SDS011;6972;51.518;6.918;2023-03-01T22:36:47;13.47;;;5.63;;
13801;SDS011;6972;51.518;6.918;2023-03-01T22:44:20;9.70;;;5.07;;
13801;SDS011;6972;51.518;6.918;2023-03-01T22:46:47;11.23;;;5.83;;
13801;SDS011;6972;51.518;6.918;2023-03-01T22:49:13;10.37;;;5.43;;
13801;SDS011;6972;51.518;6.918;2023-03-01T22:51:40;8.90;;;5.63;;
13801;SDS011;6972;51.518;6.918;2023-03-01T22:54:11;10.03;;;5.70;;
13801;SDS011;6972;51.518;6.918;2023-03-01T22:56:37;11.23;;;5.57;;
13801;SDS011;6972;51.518;6.918;2023-03-01T22:59:07;8.17;;;5.13;;
13801;SDS011;6972;51.518;6.918;2023-03-01T23:01:35;9.80;;;5.47;;
13801;SDS011;6972;51.518;6.918;2023-03-01T23:04:03;9.37;;;5.07;;
13801;SDS011;6972;51.518;6.918;2023-03-01T23:06:28;11.27;;;5.40;;
13801;SDS011;6972;51.518;6.918;2023-03-01T23:08:55;9.17;;;5.60;;
13801;SDS011;6972;51.518;6.918;2023-03-01T23:11:23;9.07;;;5.37;;
13801;SDS011;6972;51.518;6.918;2023-03-01T23:13:50;11.50;;;6.37;;
13801;SDS011;6972;51.518;6.918;2023-03-01T23:16:16;8.67;;;5.10;;
13801;SDS011;6972;51.518;6.918;2023-03-01T23:18:46;11.67;;;5.47;;
13801;SDS011;6972;51.518;6.918;2023-03-01T23:21:15;9.53;;;5.77;;
13801;SDS011;6972;51.518;6.918;2023-03-01T23:23:48;9.37;;;5.10;;
13801;SDS011;6972;51.518;6.918;2023-03-01T23:26:15;12.53;;;5.60;;
13801;SDS011;6972;51.518;6.918;2023-03-01T23:28:45;10.37;;;5.37;;
13801;SDS011;6972;51.518;6.918;2023-03-01T23:33:47;9.97;;;5.60;;
13801;SDS011;6972;51.518;6.918;2023-03-01T23:36:15;11.93;;;5.63;;
13801;SDS011;6972;51.518;6.918;2023-03-01T23:38:45;10.23;;;5.63;;
13801;SDS011;6972;51.518;6.918;2023-03-01T23:43:42;9.77;;;5.50;;
13801;SDS011;6972;51.518;6.918;2023-03-01T23:59:14;11.57;;;5.70;;
